Time;durP1;ratioP1;P1;durP2;ratioP2;P2;SDS_P1;SDS_P2;PMS_P1;PMS_P2;Temp;Humidity;BMP_temperature;BMP_pressure;BME280_temperature;BME280_humidity;BME280_pressure;Samples;Min_cycle;Max_cycle;Signal;HPM_P1;HPM_P2
2021/05/22 00:01:48;;;;;;;0.45;0.45;;;8.40;89.10;;;;;;5067127;28;20113;-78
2021/05/22 00:04:13;;;;;;;0.95;0.40;;;8.40;89.30;;;;;;5069625;28;20033;-78
2021/05/22 00:06:39;;;;;;;0.25;0.25;;;8.40;89.50;;;;;;5069162;28;20371;-77
2021/05/22 00:09:06;;;;;;;0.50;0.50;;;8.40;89.50;;;;;;5068341;28;20150;-78
2021/05/22 00:11:34;;;;;;;1.27;0.30;;;8.30;89.50;;;;;;5052492;28;20437;-77
2021/05/22 00:14:01;;;;;;;1.27;0.47;;;8.30;89.60;;;;;;5066016;28;20037;-77
2021/05/22 00:16:26;;;;;;;0.77;0.50;;;8.30;89.60;;;;;;5065410;28;20039;-77
2021/05/22 00:18:52;;;;;;;3.00;0.60;;;8.30;89.90;;;;;;5064759;28;20457;-77
2021/05/22 00:21:17;;;;;;;0.50;0.50;;;8.30;89.80;;;;;;5061830;28;20053;-77
2021/05/22 00:23:43;;;;;;;1.05;0.60;;;8.30;89.30;;;;;;5047100;28;20032;-77
2021/05/22 00:26:09;;;;;;;0.52;0.52;;;8.30;89.60;;;;;;5074512;28;20029;-77
2021/05/22 00:28:35;;;;;;;1.45;0.65;;;8.20;89.00;;;;;;5072747;28;20025;-77
2021/05/22 00:31:00;;;;;;;0.40;0.40;;;8.20;88.60;;;;;;5069661;28;20111;-78
2021/05/22 00:33:26;;;;;;;0.35;0.35;;;8.20;88.50;;;;;;5052395;28;20027;-77
2021/05/22 00:35:51;;;;;;;1.27;0.40;;;8.20;88.30;;;;;;5076876;28;20060;-78
2021/05/22 00:38:17;;;;;;;0.32;0.32;;;8.10;88.40;;;;;;5074335;28;20025;-78
2021/05/22 00:40:43;;;;;;;1.15;0.70;;;8.10;88.30;;;;;;5067210;28;20043;-78
2021/05/22 00:43:09;;;;;;;1.02;0.60;;;8.10;88.60;;;;;;5067584;28;20051;-78
2021/05/22 00:45:35;;;;;;;0.50;0.50;;;8.10;88.30;;;;;;5052905;28;20103;-78
2021/05/22 00:48:02;;;;;;;0.90;0.70;;;8.10;88.50;;;;;;5076343;28;20458;-77
2021/05/22 00:50:31;;;;;;;0.32;0.32;;;8.10;88.90;;;;;;5076997;28;20028;-78
2021/05/22 00:52:56;;;;;;;1.30;1.30;;;8.00;87.80;;;;;;5054679;28;20438;-78
2021/05/22 00:55:23;;;;;;;0.40;0.40;;;7.90;88.00;;;;;;5076243;28;20165;-78
2021/05/22 00:57:49;;;;;;;0.35;0.35;;;7.90;88.50;;;;;;5075007;28;20094;-77
2021/05/22 01:00:18;;;;;;;0.52;0.52;;;7.90;87.80;;;;;;5077140;28;20544;-78
2021/05/22 01:02:45;;;;;;;0.32;0.32;;;7.90;88.30;;;;;;5071503;28;20327;-78
2021/05/22 01:05:12;;;;;;;0.40;0.40;;;7.80;87.30;;;;;;5077861;28;20056;-78
2021/05/22 01:07:38;;;;;;;0.40;0.40;;;7.90;88.00;;;;;;5078206;28;20036;-78
2021/05/22 01:10:06;;;;;;;1.08;0.30;;;7.90;88.30;;;;;;5073792;28;20033;-78
2021/05/22 01:12:35;;;;;;;0.28;0.28;;;7.90;87.80;;;;;;5070288;28;20548;-78
2021/05/22 01:15:26;;;;;;;0.43;0.43;;;7.90;87.50;;;;;;5048519;28;20063;-78
2021/05/22 01:17:54;;;;;;;0.30;0.30;;;7.80;87.80;;;;;;5060892;28;20037;-78
2021/05/22 01:20:27;;;;;;;0.38;0.38;;;7.80;87.40;;;;;;5063173;28;20017;-78
2021/05/22 01:22:57;;;;;;;0.57;0.30;;;7.80;87.60;;;;;;5053468;28;20427;-78
2021/05/22 01:25:25;;;;;;;0.30;0.30;;;7.80;87.30;;;;;;5069361;28;20347;-78
2021/05/22 01:27:51;;;;;;;0.30;0.30;;;7.80;87.30;;;;;;5068735;28;20089;-78
2021/05/22 01:30:18;;;;;;;1.65;0.40;;;7.80;87.70;;;;;;5069475;28;20040;-78
2021/05/22 01:32:44;;;;;;;0.40;0.30;;;7.70;88.20;;;;;;5046758;28;20387;-78
2021/05/22 01:35:11;;;;;;;0.22;0.22;;;7.80;87.60;;;;;;5071845;28;20094;-78
2021/05/22 01:37:37;;;;;;;0.20;0.20;;;7.70;87.30;;;;;;5068852;28;20039;-78
2021/05/22 01:40:04;;;;;;;0.30;0.30;;;7.80;87.90;;;;;;5075952;28;20024;-78
2021/05/22 01:42:30;;;;;;;0.20;0.20;;;7.80;88.60;;;;;;5074124;28;20032;-78
2021/05/22 01:44:57;;;;;;;0.30;0.30;;;7.80;88.60;;;;;;5045667;28;20025;-77
2021/05/22 01:47:24;;;;;;;0.20;0.20;;;7.80;88.10;;;;;;5051675;28;20024;-78
2021/05/22 01:49:51;;;;;;;0.50;0.50;;;7.70;87.60;;;;;;5074460;28;20025;-79
2021/05/22 01:52:22;;;;;;;0.30;0.30;;;7.80;87.90;;;;;;5072048;28;20115;-79
2021/05/22 01:54:48;;;;;;;0.30;0.30;;;7.70;88.50;;;;;;5073363;28;20043;-78
2021/05/22 01:57:15;;;;;;;0.38;0.38;;;7.70;88.00;;;;;;5052487;28;20082;-78
2021/05/22 01:59:41;;;;;;;0.57;0.35;;;7.70;88.20;;;;;;5057421;28;20017;-78
2021/05/22 02:02:07;;;;;;;0.32;0.32;;;7.70;88.10;;;;;;5062891;28;20601;-78
2021/05/22 02:04:36;;;;;;;1.95;0.60;;;7.70;87.70;;;;;;5081084;28;20112;-78
2021/05/22 02:07:03;;;;;;;2.67;0.40;;;7.70;88.00;;;;;;5071821;28;20020;-78
2021/05/22 02:09:30;;;;;;;0.43;0.43;;;7.70;87.80;;;;;;5049382;28;20025;-78
2021/05/22 02:11:57;;;;;;;0.40;0.40;;;7.70;88.00;;;;;;5053419;28;20035;-78
2021/05/22 02:14:37;;;;;;;4.15;0.70;;;7.70;88.00;;;;;;5076754;28;20059;-78
2021/05/22 02:17:06;;;;;;;0.45;0.45;;;7.70;88.20;;;;;;5070737;28;20052;-79
2021/05/22 02:19:33;;;;;;;1.40;0.50;;;7.70;88.00;;;;;;5072052;28;20040;-79
2021/05/22 02:22:02;;;;;;;0.57;0.57;;;7.70;87.60;;;;;;5072241;28;20364;-78
2021/05/22 02:24:28;;;;;;;0.63;0.50;;;7.80;87.90;;;;;;5054505;28;20084;-79
2021/05/22 02:26:57;;;;;;;1.30;0.70;;;7.70;87.60;;;;;;5072530;28;20420;-78
2021/05/22 02:29:25;;;;;;;1.75;0.60;;;7.70;87.80;;;;;;5056354;28;20036;-78
2021/05/22 02:31:52;;;;;;;0.40;0.40;;;7.70;88.00;;;;;;5046327;28;20040;-79
2021/05/22 02:34:22;;;;;;;1.15;1.00;;;7.70;88.00;;;;;;5067931;28;20037;-79
2021/05/22 02:36:49;;;;;;;0.45;0.45;;;7.80;88.60;;;;;;5072915;28;20624;-79
2021/05/22 02:39:16;;;;;;;1.98;0.45;;;7.80;87.90;;;;;;5076151;28;20017;-81
2021/05/22 02:41:45;;;;;;;0.80;0.60;;;7.80;87.60;;;;;;5069905;28;20016;-77
2021/05/22 02:44:12;;;;;;;1.10;0.50;;;7.80;87.40;;;;;;5075514;28;20034;-78
2021/05/22 02:46:42;;;;;;;0.70;0.57;;;7.80;87.80;;;;;;5072902;28;20032;-78
2021/05/22 02:49:10;;;;;;;0.50;0.50;;;7.80;88.00;;;;;;5073107;28;20033;-78
2021/05/22 02:51:38;;;;;;;0.80;0.60;;;7.80;88.00;;;;;;5069871;28;20024;-78
2021/05/22 02:54:06;;;;;;;0.32;0.32;;;7.80;88.00;;;;;;5075884;28;20032;-78
2021/05/22 02:56:34;;;;;;;0.60;0.60;;;7.80;87.60;;;;;;5074110;28;20277;-78
2021/05/22 02:59:01;;;;;;;0.57;0.55;;;7.80;88.60;;;;;;5050637;28;20033;-79
2021/05/22 03:01:27;;;;;;;0.40;0.40;;;7.80;87.20;;;;;;5069089;28;20085;-79
2021/05/22 03:03:57;;;;;;;0.50;0.50;;;7.80;87.30;;;;;;5057202;28;20080;-79
2021/05/22 03:06:23;;;;;;;0.70;0.63;;;7.80;87.00;;;;;;5045235;28;20027;-78
2021/05/22 03:08:50;;;;;;;0.47;0.47;;;7.80;87.30;;;;;;5075029;28;20474;-78
2021/05/22 03:11:17;;;;;;;0.40;0.40;;;7.80;87.00;;;;;;5063943;28;20028;-79
2021/05/22 03:13:44;;;;;;;0.50;0.50;;;7.80;87.20;;;;;;5069723;28;20133;-78
2021/05/22 03:16:10;;;;;;;0.80;0.50;;;7.80;87.30;;;;;;5070567;28;20025;-78
2021/05/22 03:18:35;;;;;;;0.30;0.30;;;7.80;87.70;;;;;;5068696;28;20020;-78
2021/05/22 03:21:02;;;;;;;0.50;0.50;;;7.80;87.40;;;;;;5068449;28;20012;-78
2021/05/22 03:23:27;;;;;;;0.32;0.32;;;7.80;87.30;;;;;;5074707;28;20096;-79
2021/05/22 03:25:53;;;;;;;1.02;0.55;;;7.80;87.00;;;;;;5073300;28;20122;-78
2021/05/22 03:28:20;;;;;;;0.40;0.40;;;7.80;87.10;;;;;;5078626;28;20386;-78
2021/05/22 03:30:46;;;;;;;0.35;0.35;;;7.80;87.10;;;;;;5067052;28;20055;-79
2021/05/22 03:33:11;;;;;;;0.85;0.45;;;7.80;87.30;;;;;;5068581;28;20056;-78
2021/05/22 03:35:37;;;;;;;0.60;0.60;;;7.80;87.20;;;;;;5074269;28;20024;-78
2021/05/22 03:38:03;;;;;;;0.45;0.45;;;7.80;87.10;;;;;;5078620;28;20043;-78
2021/05/22 03:40:28;;;;;;;0.40;0.40;;;7.80;87.10;;;;;;5076069;28;20016;-79
2021/05/22 03:42:54;;;;;;;0.38;0.38;;;7.80;87.20;;;;;;5069884;28;20070;-80
2021/05/22 03:45:20;;;;;;;2.30;0.60;;;7.80;87.30;;;;;;5072814;28;20395;-78
2021/05/22 03:47:46;;;;;;;3.83;0.60;;;7.80;87.60;;;;;;5057015;28;20084;-78
2021/05/22 03:50:12;;;;;;;0.85;0.40;;;7.80;87.00;;;;;;5083855;28;20106;-78
2021/05/22 03:52:38;;;;;;;0.38;0.38;;;7.90;87.10;;;;;;5073681;28;20036;-79
2021/05/22 03:55:05;;;;;;;0.30;0.30;;;7.80;87.10;;;;;;5072221;28;21745;-78
2021/05/22 03:57:31;;;;;;;0.50;0.50;;;7.80;87.10;;;;;;5080018;28;20040;-79
2021/05/22 03:59:56;;;;;;;0.93;0.40;;;7.80;87.00;;;;;;5072425;28;20041;-78
2021/05/22 04:02:22;;;;;;;0.43;0.43;;;7.80;87.00;;;;;;5056397;28;20035;-79
2021/05/22 04:04:48;;;;;;;0.60;0.60;;;7.90;87.10;;;;;;5069144;28;20035;-78
2021/05/22 04:07:13;;;;;;;0.30;0.30;;;7.80;87.80;;;;;;5054515;28;20029;-79
2021/05/22 04:09:39;;;;;;;0.40;0.40;;;7.90;87.30;;;;;;5067084;28;20466;-78
2021/05/22 04:12:05;;;;;;;0.40;0.40;;;7.90;87.30;;;;;;5079000;28;20054;-79
2021/05/22 04:14:31;;;;;;;0.40;0.40;;;7.90;87.70;;;;;;5070156;28;20051;-78
2021/05/22 04:16:56;;;;;;;0.60;0.60;;;7.80;87.30;;;;;;5070074;28;20044;-79
2021/05/22 04:19:22;;;;;;;0.40;0.40;;;7.90;87.30;;;;;;5055221;28;20080;-78
2021/05/22 04:21:48;;;;;;;0.75;0.60;;;7.90;87.20;;;;;;5069133;28;20075;-78
2021/05/22 04:24:13;;;;;;;0.43;0.43;;;7.90;87.20;;;;;;5081683;28;20017;-78
2021/05/22 04:26:39;;;;;;;0.20;0.20;;;7.90;87.40;;;;;;5051927;28;20024;-78
2021/05/22 04:29:05;;;;;;;0.50;0.50;;;7.90;87.30;;;;;;5080474;28;20052;-79
2021/05/22 04:31:30;;;;;;;0.30;0.30;;;7.90;87.40;;;;;;5055297;28;20040;-79
2021/05/22 04:33:56;;;;;;;0.65;0.50;;;7.90;87.40;;;;;;5073834;28;20090;-78
2021/05/22 04:36:22;;;;;;;0.50;0.50;;;7.90;87.30;;;;;;5080313;28;20091;-78
2021/05/22 04:38:48;;;;;;;0.60;0.60;;;7.90;87.30;;;;;;5068413;28;20092;-78
2021/05/22 04:41:14;;;;;;;0.43;0.43;;;8.00;87.20;;;;;;5068389;28;20020;-77
2021/05/22 04:43:46;;;;;;;0.43;0.40;;;8.00;87.50;;;;;;5064960;28;20052;-77
2021/05/22 04:46:12;;;;;;;0.52;0.52;;;8.00;87.40;;;;;;5054017;28;20024;-77
2021/05/22 04:48:38;;;;;;;1.58;0.98;;;8.00;87.40;;;;;;5063911;28;20107;-78
2021/05/22 04:51:05;;;;;;;1.50;0.77;;;8.00;87.40;;;;;;5059771;28;20055;-78
2021/05/22 04:53:33;;;;;;;0.60;0.60;;;8.00;87.40;;;;;;5069999;28;20043;-76
2021/05/22 04:55:59;;;;;;;0.80;0.60;;;8.00;87.20;;;;;;5070341;28;20028;-76
2021/05/22 04:58:25;;;;;;;0.90;0.47;;;8.00;87.50;;;;;;5062714;28;20100;-77
2021/05/22 05:00:50;;;;;;;0.68;0.68;;;8.00;87.60;;;;;;5068256;28;20031;-77
2021/05/22 05:03:16;;;;;;;1.55;0.68;;;8.10;87.10;;;;;;5061001;28;20166;-78
2021/05/22 05:05:42;;;;;;;0.50;0.50;;;8.00;86.90;;;;;;5068942;28;20084;-77
2021/05/22 05:08:07;;;;;;;1.00;0.60;;;8.00;87.10;;;;;;5083300;28;20045;-77
2021/05/22 05:10:33;;;;;;;0.50;0.50;;;8.00;86.80;;;;;;5063021;28;20035;-78
2021/05/22 05:12:59;;;;;;;0.50;0.50;;;8.00;87.00;;;;;;5060309;28;20032;-78
2021/05/22 05:15:25;;;;;;;0.43;0.43;;;8.00;86.50;;;;;;5068898;28;20036;-78
2021/05/22 05:17:51;;;;;;;0.40;0.40;;;8.00;86.80;;;;;;5078250;28;20029;-78
2021/05/22 05:20:16;;;;;;;0.40;0.40;;;8.00;87.00;;;;;;5088512;28;20036;-77
2021/05/22 05:22:42;;;;;;;0.50;0.50;;;8.00;87.40;;;;;;5083094;28;20028;-76
2021/05/22 05:25:08;;;;;;;0.57;0.57;;;8.10;87.50;;;;;;5072716;28;20081;-79
2021/05/22 05:27:34;;;;;;;0.63;0.47;;;8.20;87.30;;;;;;5069873;28;20040;-78
2021/05/22 05:30:00;;;;;;;0.40;0.40;;;8.20;87.00;;;;;;5074173;28;20020;-78
2021/05/22 05:32:26;;;;;;;0.43;0.43;;;8.30;86.90;;;;;;5085315;28;20037;-78
2021/05/22 05:34:52;;;;;;;0.50;0.50;;;8.30;86.10;;;;;;5063065;28;20024;-77
2021/05/22 05:37:18;;;;;;;1.42;0.60;;;8.50;86.40;;;;;;5077144;28;20048;-78
2021/05/22 05:39:43;;;;;;;1.85;0.82;;;8.50;86.30;;;;;;5068351;28;20016;-77
2021/05/22 05:42:09;;;;;;;0.50;0.50;;;8.60;85.70;;;;;;5071063;28;20029;-78
2021/05/22 05:44:35;;;;;;;0.63;0.60;;;8.80;85.90;;;;;;5094642;28;20023;-78
2021/05/22 05:47:01;;;;;;;0.75;0.75;;;8.90;84.80;;;;;;5067297;28;20020;-78
2021/05/22 05:49:28;;;;;;;0.68;0.63;;;8.90;84.70;;;;;;5061171;28;20090;-77
2021/05/22 05:51:58;;;;;;;0.60;0.60;;;9.00;84.80;;;;;;5065328;28;20024;-77
2021/05/22 05:54:25;;;;;;;2.45;0.60;;;9.10;83.50;;;;;;5083957;28;20561;-78
2021/05/22 05:56:51;;;;;;;1.48;0.65;;;9.20;83.60;;;;;;5087407;28;20021;-76
2021/05/22 05:59:17;;;;;;;0.47;0.47;;;9.20;83.30;;;;;;5072324;28;20066;-77
2021/05/22 06:01:43;;;;;;;0.60;0.60;;;9.30;83.50;;;;;;5051535;28;20641;-76
2021/05/22 06:04:10;;;;;;;2.92;0.60;;;9.40;84.00;;;;;;5083148;28;20509;-77
2021/05/22 06:06:37;;;;;;;0.55;0.50;;;9.50;83.90;;;;;;5079680;28;20566;-77
2021/05/22 06:09:05;;;;;;;1.10;0.45;;;9.60;82.90;;;;;;5068507;28;20059;-77
2021/05/22 06:11:38;;;;;;;0.35;0.35;;;9.70;81.90;;;;;;5068145;28;20040;-79
2021/05/22 06:14:19;;;;;;;0.50;0.50;;;9.70;81.30;;;;;;5070120;28;20056;-77
2021/05/22 06:17:00;;;;;;;1.27;0.98;;;9.80;82.40;;;;;;5082911;28;20027;-78
2021/05/22 06:19:26;;;;;;;0.75;0.50;;;9.90;81.70;;;;;;5083259;28;20035;-78
2021/05/22 06:21:52;;;;;;;2.33;0.70;;;9.90;80.90;;;;;;5051803;28;20047;-77
2021/05/22 06:24:17;;;;;;;0.57;0.57;;;10.00;81.60;;;;;;5080460;28;20023;-79
2021/05/22 06:26:43;;;;;;;1.85;0.57;;;10.00;81.20;;;;;;5069374;28;20028;-78
2021/05/22 06:29:09;;;;;;;5.03;0.80;;;10.10;81.30;;;;;;5086705;28;20029;-77
2021/05/22 06:31:34;;;;;;;0.47;0.47;;;10.20;80.70;;;;;;5067816;28;20044;-77
2021/05/22 06:34:00;;;;;;;2.65;0.73;;;10.20;79.20;;;;;;5063266;28;20036;-78
2021/05/22 06:36:30;;;;;;;0.47;0.47;;;10.30;80.10;;;;;;5065042;28;20096;-77
2021/05/22 06:38:56;;;;;;;3.17;1.02;;;10.30;79.80;;;;;;5064500;28;20035;-79
2021/05/22 06:41:22;;;;;;;0.70;0.60;;;10.40;78.70;;;;;;5064704;28;20029;-79
2021/05/22 06:43:48;;;;;;;1.15;0.77;;;10.50;78.80;;;;;;5070133;28;20020;-79
2021/05/22 06:48:46;;;;;;;2.05;0.93;;;10.60;79.80;;;;;;5087163;28;20016;-78
2021/05/22 06:51:14;;;;;;;2.92;0.80;;;10.70;81.10;;;;;;5065177;28;20372;-77
2021/05/22 06:53:40;;;;;;;1.98;0.70;;;10.80;78.70;;;;;;5058518;28;20125;-78
2021/05/22 06:56:06;;;;;;;0.73;0.70;;;10.80;78.80;;;;;;5073440;28;20033;-77
2021/05/22 06:58:32;;;;;;;1.80;0.82;;;10.90;77.70;;;;;;5052663;28;20068;-79
2021/05/22 07:00:57;;;;;;;0.93;0.60;;;10.90;77.10;;;;;;5072973;28;20055;-77
2021/05/22 07:03:24;;;;;;;0.73;0.68;;;10.90;75.80;;;;;;5055835;28;20020;-78
2021/05/22 07:05:50;;;;;;;1.58;0.90;;;11.00;76.40;;;;;;5074484;28;20021;-79
2021/05/22 07:08:18;;;;;;;4.85;0.88;;;11.10;76.80;;;;;;5066135;28;20040;-81
2021/05/22 07:10:45;;;;;;;1.38;0.75;;;11.10;76.70;;;;;;5064100;28;20028;-79
2021/05/22 07:13:11;;;;;;;0.85;0.63;;;11.20;76.40;;;;;;5062984;28;20043;-77
2021/05/22 07:15:37;;;;;;;0.52;0.52;;;11.30;75.30;;;;;;5062799;28;20575;-80
2021/05/22 07:18:03;;;;;;;0.95;0.60;;;11.30;74.00;;;;;;5065306;28;20059;-80
2021/05/22 07:20:28;;;;;;;1.67;0.57;;;11.40;73.70;;;;;;5073399;28;20029;-80
2021/05/22 07:22:55;;;;;;;1.85;0.77;;;11.50;74.80;;;;;;5060506;28;20490;-80
2021/05/22 07:25:24;;;;;;;0.77;0.70;;;11.60;75.00;;;;;;5067835;28;20047;-80
2021/05/22 07:27:52;;;;;;;1.38;0.75;;;11.70;73.60;;;;;;5060530;28;20084;-78
2021/05/22 07:30:19;;;;;;;1.13;0.77;;;11.70;73.20;;;;;;5066151;28;20024;-78
2021/05/22 07:32:45;;;;;;;3.20;0.70;;;11.70;72.80;;;;;;5073059;28;20039;-79
2021/05/22 07:35:13;;;;;;;1.50;0.73;;;11.60;72.30;;;;;;5055659;28;20631;-79
2021/05/22 07:37:39;;;;;;;1.35;0.73;;;11.60;72.50;;;;;;5074557;28;20024;-80
2021/05/22 07:40:07;;;;;;;2.55;1.02;;;11.70;73.60;;;;;;5058336;28;20029;-80
2021/05/22 07:42:33;;;;;;;1.40;0.60;;;11.70;73.20;;;;;;5063158;28;20028;-80
2021/05/22 07:44:58;;;;;;;1.38;0.70;;;11.70;72.00;;;;;;5069154;28;20016;-78
2021/05/22 07:47:25;;;;;;;1.40;0.73;;;11.70;72.40;;;;;;5055715;28;20023;-79
2021/05/22 07:49:51;;;;;;;1.10;0.70;;;11.70;72.60;;;;;;5054031;28;20053;-78
2021/05/22 07:52:18;;;;;;;1.75;0.70;;;11.70;71.80;;;;;;5052471;28;20059;-79
2021/05/22 07:54:45;;;;;;;3.08;0.90;;;11.80;71.30;;;;;;5054134;28;20021;-79
2021/05/22 07:57:12;;;;;;;3.67;0.75;;;11.90;70.60;;;;;;5053376;28;20025;-78
2021/05/22 07:59:38;;;;;;;0.75;0.70;;;11.90;69.00;;;;;;5066719;28;20052;-79
2021/05/22 08:02:06;;;;;;;3.42;1.02;;;11.80;69.50;;;;;;5054689;28;20090;-79
2021/05/22 08:04:32;;;;;;;3.97;0.80;;;11.70;68.80;;;;;;5055344;28;20564;-79
2021/05/22 08:06:58;;;;;;;0.60;0.60;;;11.70;70.30;;;;;;5076222;28;20017;-79
2021/05/22 08:09:24;;;;;;;1.63;0.60;;;11.80;72.30;;;;;;5076462;28;20028;-79
2021/05/22 08:11:50;;;;;;;0.75;0.63;;;11.80;70.00;;;;;;5077260;28;20035;-79
2021/05/22 08:14:16;;;;;;;1.55;0.70;;;11.90;66.90;;;;;;5077558;28;20051;-79
2021/05/22 08:16:42;;;;;;;1.45;0.77;;;11.70;67.30;;;;;;5076271;28;20086;-79
2021/05/22 08:19:09;;;;;;;2.75;0.80;;;11.70;70.00;;;;;;5066583;28;20043;-81
2021/05/22 08:21:35;;;;;;;2.53;0.93;;;11.70;70.60;;;;;;5076442;28;20016;-79
2021/05/22 08:24:01;;;;;;;0.68;0.50;;;11.80;71.30;;;;;;5074600;28;20394;-79
2021/05/22 08:26:27;;;;;;;4.35;0.90;;;12.00;70.30;;;;;;5075681;28;20035;-77
2021/05/22 08:28:54;;;;;;;0.95;0.50;;;12.30;68.30;;;;;;5077498;28;20502;-79
2021/05/22 08:31:20;;;;;;;0.70;0.65;;;12.40;69.80;;;;;;5095528;28;20042;-79
2021/05/22 08:33:46;;;;;;;2.13;0.88;;;12.50;69.20;;;;;;5080282;28;20039;-79
2021/05/22 08:36:13;;;;;;;1.95;0.60;;;12.50;68.80;;;;;;5072749;28;20499;-79
2021/05/22 08:38:39;;;;;;;5.38;1.00;;;12.40;68.40;;;;;;5072985;28;20025;-79
2021/05/22 08:41:06;;;;;;;1.15;0.80;;;12.30;66.20;;;;;;5075224;28;20105;-78
2021/05/22 08:43:32;;;;;;;1.50;0.90;;;12.30;67.10;;;;;;5073433;28;20051;-79
2021/05/22 08:45:58;;;;;;;3.92;1.13;;;12.20;67.00;;;;;;5056326;28;20039;-81
2021/05/22 08:48:24;;;;;;;2.58;0.85;;;12.20;69.50;;;;;;5039224;28;20119;-80
2021/05/22 08:50:50;;;;;;;0.75;0.60;;;12.30;67.40;;;;;;5040497;28;20128;-83
2021/05/22 08:53:16;;;;;;;2.85;1.00;;;12.40;66.80;;;;;;5062734;28;20032;-79
2021/05/22 08:55:42;;;;;;;2.42;0.60;;;12.40;65.60;;;;;;5063570;28;20039;-80
2021/05/22 08:58:08;;;;;;;2.15;1.33;;;12.40;68.40;;;;;;5042467;28;20028;-80
2021/05/22 09:00:39;;;;;;;2.88;0.80;;;12.40;65.90;;;;;;5065030;28;20459;-80
2021/05/22 09:03:09;;;;;;;3.97;0.98;;;12.60;68.50;;;;;;5061204;28;20017;-80
2021/05/22 09:05:37;;;;;;;0.70;0.70;;;12.70;65.80;;;;;;5062834;28;20032;-81
2021/05/22 09:08:06;;;;;;;2.95;0.95;;;12.80;65.50;;;;;;5059123;28;20399;-81
2021/05/22 09:10:44;;;;;;;0.68;0.60;;;13.00;66.60;;;;;;5053715;28;20024;-80
2021/05/22 09:13:12;;;;;;;1.00;0.70;;;13.10;66.00;;;;;;5075306;28;20112;-81
2021/05/22 09:15:41;;;;;;;1.27;0.65;;;13.10;65.80;;;;;;5054524;28;20028;-81
2021/05/22 09:18:11;;;;;;;2.10;0.90;;;13.30;64.80;;;;;;5066290;28;20035;-81
2021/05/22 09:20:45;;;;;;;3.85;0.70;;;13.30;65.30;;;;;;5066314;28;20052;-81
2021/05/22 09:23:12;;;;;;;3.60;0.80;;;13.30;63.00;;;;;;5053091;28;20116;-81
2021/05/22 09:25:45;;;;;;;1.17;0.63;;;13.40;64.50;;;;;;5068812;28;20017;-81
2021/05/22 09:28:12;;;;;;;3.40;0.80;;;13.30;61.10;;;;;;5065376;28;20059;-82
2021/05/22 09:30:40;;;;;;;5.63;1.77;;;13.40;62.70;;;;;;5073390;28;20132;-81
2021/05/22 09:33:14;;;;;;;1.92;0.63;;;13.70;64.90;;;;;;5076676;28;20516;-83
2021/05/22 09:35:42;;;;;;;4.30;0.77;;;13.60;60.80;;;;;;5070259;28;20193;-81
2021/05/22 09:38:08;;;;;;;2.58;0.80;;;13.60;60.80;;;;;;5053175;28;20052;-81
2021/05/22 09:40:36;;;;;;;3.35;0.50;;;13.70;61.30;;;;;;5072607;28;20040;-81
2021/05/22 09:43:05;;;;;;;3.35;0.90;;;13.70;62.30;;;;;;5072778;28;20028;-82
2021/05/22 09:45:44;;;;;;;2.80;0.90;;;13.80;63.50;;;;;;5080005;28;20024;-81
2021/05/22 09:48:21;;;;;;;2.75;0.82;;;13.80;61.80;;;;;;5045929;28;20479;-82
2021/05/22 09:50:49;;;;;;;1.98;0.57;;;13.80;62.70;;;;;;5070770;28;20111;-81
2021/05/22 09:53:35;;;;;;;2.47;1.40;;;14.00;63.20;;;;;;5068454;28;20643;-82
2021/05/22 09:56:10;;;;;;;2.08;0.90;;;14.00;60.10;;;;;;5061922;28;20029;-83
2021/05/22 09:59:01;;;;;;;3.10;0.88;;;14.10;65.00;;;;;;5049491;28;20031;-83
2021/05/22 10:01:31;;;;;;;1.30;0.88;;;14.10;60.00;;;;;;5058543;28;20490;-83
2021/05/22 10:04:17;;;;;;;2.67;0.65;;;14.00;59.30;;;;;;5047416;28;20028;-82
2021/05/22 10:06:43;;;;;;;1.35;0.50;;;14.00;60.70;;;;;;5056199;28;20393;-82
2021/05/22 10:09:13;;;;;;;0.73;0.50;;;14.10;63.80;;;;;;5053061;28;20029;-83
2021/05/22 10:12:09;;;;;;;1.08;0.52;;;14.10;61.50;;;;;;5054242;28;20092;-82
2021/05/22 10:14:40;;;;;;;1.15;0.60;;;14.00;60.30;;;;;;5044305;28;20036;-82
2021/05/22 10:17:08;;;;;;;0.65;0.65;;;14.00;60.20;;;;;;5054339;28;20096;-83
2021/05/22 10:19:35;;;;;;;1.27;0.70;;;14.10;62.80;;;;;;5081459;28;20024;-83
2021/05/22 10:22:02;;;;;;;1.38;0.70;;;14.10;59.80;;;;;;5070002;28;20020;-83
2021/05/22 10:24:28;;;;;;;2.38;0.80;;;14.00;59.70;;;;;;5042864;28;20029;-83
2021/05/22 10:26:55;;;;;;;0.52;0.47;;;14.00;62.00;;;;;;5048870;28;20032;-83
2021/05/22 10:29:22;;;;;;;0.75;0.73;;;14.00;61.90;;;;;;5069429;28;20051;-83
2021/05/22 10:31:49;;;;;;;1.33;0.80;;;13.90;62.20;;;;;;5068701;28;20032;-83
2021/05/22 10:34:18;;;;;;;3.17;0.80;;;13.90;60.50;;;;;;5058322;28;20020;-82
2021/05/22 10:37:00;;;;;;;2.28;0.55;;;14.10;64.00;;;;;;5073628;28;20039;-83
2021/05/22 10:39:44;;;;;;;4.30;0.55;;;14.40;62.50;;;;;;5069063;28;20097;-84
2021/05/22 10:42:22;;;;;;;2.53;0.70;;;14.50;60.10;;;;;;5072078;28;20085;-84
2021/05/22 10:44:49;;;;;;;1.40;0.63;;;14.50;61.50;;;;;;5062700;28;20028;-83
2021/05/22 10:47:19;;;;;;;2.40;0.88;;;14.50;59.80;;;;;;5045364;28;20240;-84
2021/05/22 10:49:55;;;;;;;2.30;0.90;;;14.60;63.90;;;;;;5060700;28;20322;-84
2021/05/22 10:52:22;;;;;;;1.92;0.63;;;14.70;59.50;;;;;;5064033;28;20028;-83
2021/05/22 10:55:01;;;;;;;1.80;0.65;;;14.60;60.10;;;;;;5038210;28;20020;-84
2021/05/22 10:57:28;;;;;;;2.65;0.55;;;14.60;58.40;;;;;;5044520;28;20040;-84
2021/05/22 11:00:22;;;;;;;0.80;0.60;;;14.70;59.00;;;;;;5044008;28;20024;-82
2021/05/22 11:02:54;;;;;;;2.58;0.70;;;14.70;59.10;;;;;;5039668;28;20115;-82
2021/05/22 11:05:23;;;;;;;0.95;0.70;;;14.80;57.80;;;;;;5042919;28;20032;-80
2021/05/22 11:08:12;;;;;;;0.65;0.60;;;14.90;57.00;;;;;;5047837;28;20055;-82
2021/05/22 11:10:42;;;;;;;1.95;0.88;;;14.70;55.50;;;;;;5061960;28;20487;-83
2021/05/22 11:13:31;;;;;;;1.00;0.90;;;14.80;59.20;;;;;;5064084;28;20094;-82
2021/05/22 11:16:06;;;;;;;2.08;0.68;;;15.00;58.70;;;;;;5061033;28;20036;-80
2021/05/22 11:18:34;;;;;;;1.75;0.68;;;14.90;56.10;;;;;;5068294;28;20029;-81
2021/05/22 11:21:24;;;;;;;1.63;0.50;;;14.90;58.40;;;;;;5041615;28;20025;-82
2021/05/22 11:23:59;;;;;;;2.13;0.77;;;14.90;59.10;;;;;;5047821;28;20063;-81
2021/05/22 11:26:50;;;;;;;0.65;0.40;;;15.10;60.20;;;;;;5065790;28;20021;-81
2021/05/22 11:29:16;;;;;;;1.40;0.55;;;15.30;59.10;;;;;;5065691;28;20360;-80
2021/05/22 11:31:42;;;;;;;2.38;0.80;;;15.30;54.10;;;;;;5065096;28;20115;-81
2021/05/22 11:34:37;;;;;;;0.52;0.43;;;15.30;58.90;;;;;;5065700;28;20021;-81
2021/05/22 11:37:12;;;;;;;1.27;0.50;;;15.30;54.20;;;;;;5045879;28;20052;-82
2021/05/22 11:39:41;;;;;;;0.85;0.50;;;15.30;53.80;;;;;;5042924;28;20055;-81
2021/05/22 11:42:29;;;;;;;2.53;0.60;;;15.20;54.30;;;;;;5069825;28;20032;-81
2021/05/22 11:44:56;;;;;;;0.60;0.50;;;15.40;60.70;;;;;;5068129;28;20025;-82
2021/05/22 11:47:28;;;;;;;1.50;0.73;;;15.40;52.80;;;;;;5071267;28;20398;-81
2021/05/22 11:49:54;;;;;;;2.72;0.68;;;15.30;53.40;;;;;;5051005;28;20090;-81
2021/05/22 11:52:31;;;;;;;3.33;0.60;;;15.40;56.90;;;;;;5070311;28;20024;-81
2021/05/22 11:54:58;;;;;;;2.65;0.80;;;15.40;51.60;;;;;;5072033;28;20035;-80
2021/05/22 11:57:23;;;;;;;2.15;0.65;;;15.40;53.00;;;;;;5070184;28;20031;-80
2021/05/22 11:59:50;;;;;;;1.63;0.60;;;15.50;54.90;;;;;;5070526;28;20024;-84
2021/05/22 12:02:37;;;;;;;0.73;0.70;;;15.60;55.80;;;;;;5070955;28;21666;-83
2021/05/22 12:05:05;;;;;;;4.13;0.73;;;15.70;53.80;;;;;;5048556;28;20110;-83
2021/05/22 12:07:50;;;;;;;1.50;0.60;;;15.70;52.20;;;;;;5069019;28;20025;-81
2021/05/22 12:10:18;;;;;;;2.65;0.90;;;15.70;54.50;;;;;;5050849;28;20025;-81
2021/05/22 12:12:44;;;;;;;0.68;0.50;;;15.80;55.30;;;;;;5048410;28;20050;-81
2021/05/22 12:15:23;;;;;;;2.70;0.68;;;15.80;52.80;;;;;;5067307;28;20444;-81
2021/05/22 12:17:51;;;;;;;1.27;0.38;;;15.80;52.00;;;;;;5048230;28;20094;-82
2021/05/22 12:20:16;;;;;;;2.97;1.30;;;15.70;53.40;;;;;;5068435;28;20094;-82
2021/05/22 12:22:42;;;;;;;0.70;0.50;;;15.60;51.90;;;;;;5050234;28;20025;-82
2021/05/22 12:25:09;;;;;;;1.42;0.73;;;15.50;49.10;;;;;;5070746;28;20517;-83
2021/05/22 12:27:38;;;;;;;0.80;0.50;;;15.60;53.00;;;;;;5078865;28;20018;-82
2021/05/22 12:30:06;;;;;;;3.83;0.70;;;15.50;50.20;;;;;;5071005;28;20093;-82
2021/05/22 12:32:32;;;;;;;1.55;0.88;;;15.60;52.80;;;;;;5062765;28;20436;-83
2021/05/22 12:35:00;;;;;;;1.30;0.95;;;15.70;51.90;;;;;;5056915;28;20017;-82
2021/05/22 12:37:27;;;;;;;0.65;0.50;;;15.70;53.30;;;;;;5068948;28;20016;-82
2021/05/22 12:40:05;;;;;;;1.92;0.65;;;15.70;49.60;;;;;;5065686;28;20025;-81
2021/05/22 12:42:35;;;;;;;1.02;0.50;;;15.60;50.20;;;;;;5083631;28;20533;-81
2021/05/22 12:45:09;;;;;;;0.82;0.50;;;15.60;53.70;;;;;;5064533;28;20024;-81
2021/05/22 12:47:39;;;;;;;0.98;0.50;;;15.70;50.40;;;;;;5077837;28;20098;-82
2021/05/22 12:50:08;;;;;;;0.90;0.45;;;15.60;52.10;;;;;;5080287;28;20097;-81
2021/05/22 12:52:49;;;;;;;;;;;15.70;49.00;;;;;;5075441;28;20020;-81
2021/05/22 12:55:20;;;;;;;1.60;0.65;;;15.90;57.00;;;;;;5076643;28;19908;-81
2021/05/22 12:57:46;;;;;;;3.25;0.98;;;16.00;51.40;;;;;;5056193;28;20028;-82
2021/05/22 13:00:15;;;;;;;0.77;0.57;;;16.10;52.90;;;;;;5056040;28;20071;-82
2021/05/22 13:02:52;;;;;;;3.60;0.80;;;16.20;52.70;;;;;;5060171;28;20047;-82